sensor_id;sensor_type;location;lat;lon;timestamp;pressure;altitude;pressure_sealevel;temperature;humidity
62655;BME280;48717;55.556;37.816;2022-11-09T00:00:49;99321.25;;;4.48;100.00
62655;BME280;48717;55.556;37.816;2022-11-09T00:03:16;99338.88;;;4.63;100.00
62655;BME280;48717;55.556;37.816;2022-11-09T00:05:53;99359.94;;;4.74;100.00
62655;BME280;48717;55.556;37.816;2022-11-09T00:08:21;99323.00;;;4.49;100.00
62655;BME280;48717;55.556;37.816;2022-11-09T00:10:48;99354.75;;;4.77;100.00
62655;BME280;48717;55.556;37.816;2022-11-09T00:13:15;99363.44;;;4.76;100.00
62655;BME280;48717;55.556;37.816;2022-11-09T00:15:42;99367.81;;;4.77;100.00
62655;BME280;48717;55.556;37.816;2022-11-09T00:18:14;99356.56;;;4.79;100.00
62655;BME280;48717;55.556;37.816;2022-11-09T00:20:41;99319.63;;;4.56;100.00
62655;BME280;48717;55.556;37.816;2022-11-09T00:23:15;99358.31;;;4.82;100.00
62655;BME280;48717;55.556;37.816;2022-11-09T00:25:43;99369.66;;;4.84;100.00
62655;BME280;48717;55.556;37.816;2022-11-09T00:28:13;99333.78;;;4.72;100.00
62655;BME280;48717;55.556;37.816;2022-11-09T00:30:41;99328.47;;;4.64;100.00
62655;BME280;48717;55.556;37.816;2022-11-09T00:33:08;99348.72;;;4.79;100.00
62655;BME280;48717;55.556;37.816;2022-11-09T00:35:42;99346.06;;;4.78;100.00
62655;BME280;48717;55.556;37.816;2022-11-09T00:38:09;99354.91;;;4.86;100.00
62655;BME280;48717;55.556;37.816;2022-11-09T00:40:37;99333.72;;;4.67;100.00
62655;BME280;48717;55.556;37.816;2022-11-09T00:43:05;99339.03;;;4.74;100.00
62655;BME280;48717;55.556;37.816;2022-11-09T00:45:32;99362.78;;;4.89;100.00
62655;BME280;48717;55.556;37.816;2022-11-09T00:48:14;99348.75;;;4.82;100.00
62655;BME280;48717;55.556;37.816;2022-11-09T00:50:54;99370.66;;;4.92;100.00
62655;BME280;48717;55.556;37.816;2022-11-09T00:53:24;99363.69;;;4.91;100.00
62655;BME280;48717;55.556;37.816;2022-11-09T00:55:59;99353.22;;;4.91;100.00
62655;BME280;48717;55.556;37.816;2022-11-09T00:58:28;99365.50;;;4.95;100.00
62655;BME280;48717;55.556;37.816;2022-11-09T01:00:57;99367.25;;;4.96;100.00
62655;BME280;48717;55.556;37.816;2022-11-09T01:03:25;99323.38;;;4.74;100.00
62655;BME280;48717;55.556;37.816;2022-11-09T01:05:52;99369.88;;;4.98;100.00
62655;BME280;48717;55.556;37.816;2022-11-09T01:08:19;99368.09;;;4.95;100.00
62655;BME280;48717;55.556;37.816;2022-11-09T01:10:47;99370.78;;;5.02;100.00
62655;BME280;48717;55.556;37.816;2022-11-09T01:13:16;99379.56;;;5.04;100.00
62655;BME280;48717;55.556;37.816;2022-11-09T01:15:47;99369.97;;;5.06;100.00
62655;BME280;48717;55.556;37.816;2022-11-09T01:18:16;99374.34;;;5.07;100.00
62655;BME280;48717;55.556;37.816;2022-11-09T01:20:46;99376.09;;;5.08;100.00
62655;BME280;48717;55.556;37.816;2022-11-09T01:23:14;99365.59;;;5.03;100.00
62655;BME280;48717;55.556;37.816;2022-11-09T01:25:43;99344.59;;;4.95;100.00
62655;BME280;48717;55.556;37.816;2022-11-09T01:28:11;99375.28;;;5.11;100.00
62655;BME280;48717;55.556;37.816;2022-11-09T01:30:41;99376.16;;;5.11;100.00
62655;BME280;48717;55.556;37.816;2022-11-09T01:33:10;99353.44;;;5.07;100.00
62655;BME280;48717;55.556;37.816;2022-11-09T01:35:39;99365.72;;;5.13;100.00
62655;BME280;48717;55.556;37.816;2022-11-09T01:38:07;99370.97;;;5.14;100.00
62655;BME280;48717;55.556;37.816;2022-11-09T01:40:36;99368.34;;;5.14;100.00
62655;BME280;48717;55.556;37.816;2022-11-09T01:43:13;99375.28;;;5.11;100.00
62655;BME280;48717;55.556;37.816;2022-11-09T01:45:42;99375.34;;;5.15;100.00
62655;BME280;48717;55.556;37.816;2022-11-09T01:48:14;99378.88;;;5.17;100.00
62655;BME280;48717;55.556;37.816;2022-11-09T01:50:51;99371.81;;;5.12;100.00
62655;BME280;48717;55.556;37.816;2022-11-09T01:53:23;99374.53;;;5.19;100.00
62655;BME280;48717;55.556;37.816;2022-11-09T01:55:54;99357.81;;;5.09;100.00
62655;BME280;48717;55.556;37.816;2022-11-09T01:58:27;99380.63;;;5.20;100.00
62655;BME280;48717;55.556;37.816;2022-11-09T02:00:58;99347.28;;;5.02;100.00
62655;BME280;48717;55.556;37.816;2022-11-09T02:03:31;99375.44;;;5.21;100.00
62655;BME280;48717;55.556;37.816;2022-11-09T02:05:59;99380.66;;;5.21;100.00
62655;BME280;48717;55.556;37.816;2022-11-09T02:08:29;99380.63;;;5.18;100.00
62655;BME280;48717;55.556;37.816;2022-11-09T02:11:08;99369.34;;;5.22;100.00
62655;BME280;48717;55.556;37.816;2022-11-09T02:13:42;99356.97;;;5.09;100.00
62655;BME280;48717;55.556;37.816;2022-11-09T02:16:12;99393.75;;;5.25;100.00
62655;BME280;48717;55.556;37.816;2022-11-09T02:18:55;99388.56;;;5.26;100.00
62655;BME280;48717;55.556;37.816;2022-11-09T02:21:26;99373.75;;;5.27;100.00
62655;BME280;48717;55.556;37.816;2022-11-09T02:23:57;99388.53;;;5.25;100.00
62655;BME280;48717;55.556;37.816;2022-11-09T02:28:57;99392.06;;;5.30;100.00
62655;BME280;48717;55.556;37.816;2022-11-09T02:31:37;99394.69;;;5.28;100.00
62655;BME280;48717;55.556;37.816;2022-11-09T02:34:43;99386.03;;;5.32;100.00
62655;BME280;48717;55.556;37.816;2022-11-09T02:37:38;99400.84;;;5.32;100.00
62655;BME280;48717;55.556;37.816;2022-11-09T02:43:11;99386.00;;;5.31;100.00
62655;BME280;48717;55.556;37.816;2022-11-09T02:45:45;99383.28;;;5.25;100.00
62655;BME280;48717;55.556;37.816;2022-11-09T02:48:13;99388.63;;;5.31;100.00
62655;BME280;48717;55.556;37.816;2022-11-09T02:50:40;99372.78;;;5.18;100.00
62655;BME280;48717;55.556;37.816;2022-11-09T02:53:07;99396.47;;;5.31;100.00
62655;BME280;48717;55.556;37.816;2022-11-09T02:55:37;99396.50;;;5.32;100.00
62655;BME280;48717;55.556;37.816;2022-11-09T02:58:05;99383.28;;;5.25;100.00
62655;BME280;48717;55.556;37.816;2022-11-09T03:00:34;99366.63;;;5.16;100.00
62655;BME280;48717;55.556;37.816;2022-11-09T03:03:02;99337.63;;;4.97;100.00
62655;BME280;48717;55.556;37.816;2022-11-09T03:05:29;99386.00;;;5.29;100.00
62655;BME280;48717;55.556;37.816;2022-11-09T03:07:56;99385.09;;;5.29;100.00
62655;BME280;48717;55.556;37.816;2022-11-09T03:10:31;99380.75;;;5.29;100.00
62655;BME280;48717;55.556;37.816;2022-11-09T03:12:59;99385.19;;;5.35;100.00
62655;BME280;48717;55.556;37.816;2022-11-09T03:15:26;99381.59;;;5.27;100.00
62655;BME280;48717;55.556;37.816;2022-11-09T03:17:53;99390.41;;;5.36;100.00
62655;BME280;48717;55.556;37.816;2022-11-09T03:20:23;99350.13;;;5.17;100.00
62655;BME280;48717;55.556;37.816;2022-11-09T03:22:50;99395.69;;;5.38;100.00
62655;BME280;48717;55.556;37.816;2022-11-09T03:25:17;99393.06;;;5.38;100.00
62655;BME280;48717;55.556;37.816;2022-11-09T03:27:44;99357.94;;;5.17;100.00
62655;BME280;48717;55.556;37.816;2022-11-09T03:30:12;99372.84;;;5.25;100.00
62655;BME280;48717;55.556;37.816;2022-11-09T03:32:39;99389.56;;;5.36;100.00
62655;BME280;48717;55.556;37.816;2022-11-09T03:35:07;99405.31;;;5.42;100.00
62655;BME280;48717;55.556;37.816;2022-11-09T03:37:34;99367.59;;;5.21;100.00
62655;BME280;48717;55.556;37.816;2022-11-09T03:40:02;99409.69;;;5.43;100.00
62655;BME280;48717;55.556;37.816;2022-11-09T03:42:30;99381.66;;;5.33;100.00
62655;BME280;48717;55.556;37.816;2022-11-09T03:44:56;99394.91;;;5.45;100.00
62655;BME280;48717;55.556;37.816;2022-11-09T03:47:23;99406.25;;;5.47;100.00
62655;BME280;48717;55.556;37.816;2022-11-09T03:49:50;99369.47;;;5.32;100.00
62655;BME280;48717;55.556;37.816;2022-11-09T03:52:17;99361.44;;;5.19;100.00
62655;BME280;48717;55.556;37.816;2022-11-09T03:54:44;99411.47;;;5.44;100.00
62655;BME280;48717;55.556;37.816;2022-11-09T03:57:11;99417.66;;;5.51;100.00
62655;BME280;48717;55.556;37.816;2022-11-09T03:59:38;99416.75;;;5.49;100.00
62655;BME280;48717;55.556;37.816;2022-11-09T04:02:05;99417.69;;;5.53;100.00
62655;BME280;48717;55.556;37.816;2022-11-09T04:04:32;99432.50;;;5.54;100.00
62655;BME280;48717;55.556;37.816;2022-11-09T04:06:59;99423.72;;;5.48;100.00
62655;BME280;48717;55.556;37.816;2022-11-09T04:09:26;99426.38;;;5.53;100.00
62655;BME280;48717;55.556;37.816;2022-11-09T04:11:53;99430.81;;;5.59;100.00
62655;BME280;48717;55.556;37.816;2022-11-09T04:14:20;99423.84;;;5.61;100.00
62655;BME280;48717;55.556;37.816;2022-11-09T04:16:47;99427.34;;;5.60;100.00
62655;BME280;48717;55.556;37.816;2022-11-09T04:19:14;99423.84;;;5.61;100.00
62655;BME280;48717;55.556;37.816;2022-11-09T04:21:41;99432.69;;;5.69;100.00
62655;BME280;48717;55.556;37.816;2022-11-09T04:24:08;99426.59;;;5.72;100.00
62655;BME280;48717;55.556;37.816;2022-11-09T04:26:35;99364.28;;;5.38;100.00
62655;BME280;48717;55.556;37.816;2022-11-09T04:29:02;99441.47;;;5.74;100.00
62655;BME280;48717;55.556;37.816;2022-11-09T04:31:30;99402.88;;;5.55;100.00
62655;BME280;48717;55.556;37.816;2022-11-09T04:33:57;99427.44;;;5.69;100.00
62655;BME280;48717;55.556;37.816;2022-11-09T04:36:24;99439.81;;;5.80;100.00
62655;BME280;48717;55.556;37.816;2022-11-09T04:38:51;99420.53;;;5.74;100.00
62655;BME280;48717;55.556;37.816;2022-11-09T04:41:18;99438.06;;;5.82;100.00
62655;BME280;48717;55.556;37.816;2022-11-09T04:43:45;99440.72;;;5.83;100.00
62655;BME280;48717;55.556;37.816;2022-11-09T04:46:12;99423.09;;;5.68;100.00
62655;BME280;48717;55.556;37.816;2022-11-09T04:48:39;99400.31;;;5.61;100.00
62655;BME280;48717;55.556;37.816;2022-11-09T04:51:09;99427.59;;;5.82;100.00
62655;BME280;48717;55.556;37.816;2022-11-09T04:53:37;99437.28;;;5.87;100.00
62655;BME280;48717;55.556;37.816;2022-11-09T04:56:05;99441.63;;;5.87;100.00
62655;BME280;48717;55.556;37.816;2022-11-09T04:58:33;99408.31;;;5.70;100.00
62655;BME280;48717;55.556;37.816;2022-11-09T05:01:11;99446.00;;;5.90;100.00
62655;BME280;48717;55.556;37.816;2022-11-09T05:03:38;99410.06;;;5.74;100.00
62655;BME280;48717;55.556;37.816;2022-11-09T05:06:06;99448.63;;;5.88;100.00
62655;BME280;48717;55.556;37.816;2022-11-09T05:08:53;99408.22;;;5.64;100.00
62655;BME280;48717;55.556;37.816;2022-11-09T05:11:29;99455.63;;;5.92;100.00
62655;BME280;48717;55.556;37.816;2022-11-09T05:13:57;99450.41;;;5.92;100.00
62655;BME280;48717;55.556;37.816;2022-11-09T05:16:24;99453.94;;;5.94;100.00
62655;BME280;48717;55.556;37.816;2022-11-09T05:18:51;99425.75;;;5.71;100.00
62655;BME280;48717;55.556;37.816;2022-11-09T05:21:19;99448.66;;;5.91;100.00
62655;BME280;48717;55.556;37.816;2022-11-09T05:23:46;99466.19;;;5.98;100.00
62655;BME280;48717;55.556;37.816;2022-11-09T05:26:34;99435.56;;;5.88;100.00
62655;BME280;48717;55.556;37.816;2022-11-09T05:29:03;99450.47;;;5.97;100.00
62655;BME280;48717;55.556;37.816;2022-11-09T05:31:31;99457.59;;;6.06;100.00
62655;BME280;48717;55.556;37.816;2022-11-09T05:33:58;99408.38;;;5.77;100.00
62655;BME280;48717;55.556;37.816;2022-11-09T05:36:26;99452.38;;;6.06;100.00
62655;BME280;48717;55.556;37.816;2022-11-09T05:38:54;99462.84;;;6.09;100.00
62655;BME280;48717;55.556;37.816;2022-11-09T05:41:21;99413.72;;;5.86;100.00
62655;BME280;48717;55.556;37.816;2022-11-09T05:43:48;99455.00;;;6.09;100.00
62655;BME280;48717;55.556;37.816;2022-11-09T05:46:16;99435.69;;;5.99;100.00
62655;BME280;48717;55.556;37.816;2022-11-09T05:48:44;99469.97;;;6.19;100.00
62655;BME280;48717;55.556;37.816;2022-11-09T05:51:12;99446.25;;;6.05;100.00
62655;BME280;48717;55.556;37.816;2022-11-09T05:53:40;99428.69;;;5.99;100.00
62655;BME280;48717;55.556;37.816;2022-11-09T05:56:13;99449.75;;;6.06;100.00
62655;BME280;48717;55.556;37.816;2022-11-09T05:58:40;99438.41;;;6.10;100.00
62655;BME280;48717;55.556;37.816;2022-11-09T06:01:12;99431.53;;;6.15;100.00
62655;BME280;48717;55.556;37.816;2022-11-09T06:03:40;99460.53;;;6.35;100.00
62655;BME280;48717;55.556;37.816;2022-11-09T06:06:12;99421.88;;;6.14;100.00
62655;BME280;48717;55.556;37.816;2022-11-09T06:08:39;99443.88;;;6.29;100.00
62655;BME280;48717;55.556;37.816;2022-11-09T06:11:09;99471.13;;;6.49;100.00
62655;BME280;48717;55.556;37.816;2022-11-09T06:13:36;99464.19;;;6.51;100.00
62655;BME280;48717;55.556;37.816;2022-11-09T06:16:04;99472.91;;;6.50;100.00
62655;BME280;48717;55.556;37.816;2022-11-09T06:18:34;99464.16;;;6.50;100.00
62655;BME280;48717;55.556;37.816;2022-11-09T06:21:02;99443.97;;;6.38;100.00
62655;BME280;48717;55.556;37.816;2022-11-09T06:23:30;99471.22;;;6.60;100.00
62655;BME280;48717;55.556;37.816;2022-11-09T06:25:59;99469.47;;;6.59;100.00
62655;BME280;48717;55.556;37.816;2022-11-09T06:28:27;99479.06;;;6.59;100.00
62655;BME280;48717;55.556;37.816;2022-11-09T06:30:59;99479.09;;;6.62;100.00
62655;BME280;48717;55.556;37.816;2022-11-09T06:33:29;99463.28;;;6.51;100.00
62655;BME280;48717;55.556;37.816;2022-11-09T06:35:56;99485.25;;;6.62;100.00
62655;BME280;48717;55.556;37.816;2022-11-09T06:38:24;99488.75;;;6.64;100.00
62655;BME280;48717;55.556;37.816;2022-11-09T06:40:56;99487.88;;;6.67;100.00
62655;BME280;48717;55.556;37.816;2022-11-09T06:43:24;99443.13;;;6.40;100.00
62655;BME280;48717;55.556;37.816;2022-11-09T06:45:51;99482.69;;;6.70;100.00
62655;BME280;48717;55.556;37.816;2022-11-09T06:48:19;99489.69;;;6.71;100.00
62655;BME280;48717;55.556;37.816;2022-11-09T06:50:46;99491.47;;;6.72;100.00
62655;BME280;48717;55.556;37.816;2022-11-09T06:53:15;99487.00;;;6.65;100.00
62655;BME280;48717;55.556;37.816;2022-11-09T06:55:42;99484.38;;;6.65;100.00
62655;BME280;48717;55.556;37.816;2022-11-09T06:58:16;99503.69;;;6.73;100.00
62655;BME280;48717;55.556;37.816;2022-11-09T07:00:44;99494.88;;;6.65;100.00
62655;BME280;48717;55.556;37.816;2022-11-09T07:03:15;99505.41;;;6.71;100.00
62655;BME280;48717;55.556;37.816;2022-11-09T07:05:43;99499.28;;;6.69;100.00
62655;BME280;48717;55.556;37.816;2022-11-09T07:08:11;99485.25;;;6.64;100.00
62655;BME280;48717;55.556;37.816;2022-11-09T07:10:39;99485.19;;;6.59;100.00
62655;BME280;48717;55.556;37.816;2022-11-09T07:13:06;99498.44;;;6.73;100.00
62655;BME280;48717;55.556;37.816;2022-11-09T07:15:34;99496.66;;;6.69;100.00
62655;BME280;48717;55.556;37.816;2022-11-09T07:18:06;99489.66;;;6.68;100.00
62655;BME280;48717;55.556;37.816;2022-11-09T07:20:33;99511.56;;;6.78;100.00
62655;BME280;48717;55.556;37.816;2022-11-09T07:23:00;99500.16;;;6.68;100.00
62655;BME280;48717;55.556;37.816;2022-11-09T07:25:27;99504.53;;;6.71;100.00
62655;BME280;48717;55.556;37.816;2022-11-09T07:28:01;99519.50;;;6.83;100.00
62655;BME280;48717;55.556;37.816;2022-11-09T07:30:29;99509.88;;;6.82;100.00
62655;BME280;48717;55.556;37.816;2022-11-09T07:32:56;99509.03;;;6.86;100.00
62655;BME280;48717;55.556;37.816;2022-11-09T07:35:36;99507.19;;;6.72;100.00
62655;BME280;48717;55.556;37.816;2022-11-09T07:38:03;99511.59;;;6.79;100.00
62655;BME280;48717;55.556;37.816;2022-11-09T07:40:31;99529.19;;;6.93;100.00
62655;BME280;48717;55.556;37.816;2022-11-09T07:43:03;99528.31;;;6.92;100.00
62655;BME280;48717;55.556;37.816;2022-11-09T07:45:32;99509.88;;;6.83;100.00
62655;BME280;48717;55.556;37.816;2022-11-09T07:48:07;99526.59;;;6.96;100.00
62655;BME280;48717;55.556;37.816;2022-11-09T07:50:36;99544.09;;;6.97;100.00
62655;BME280;48717;55.556;37.816;2022-11-09T07:53:03;99539.72;;;6.98;100.00
62655;BME280;48717;55.556;37.816;2022-11-09T07:55:34;99533.56;;;6.91;100.00
62655;BME280;48717;55.556;37.816;2022-11-09T07:58:04;99537.00;;;6.87;100.00
62655;BME280;48717;55.556;37.816;2022-11-09T08:00:33;99545.81;;;6.95;100.00
62655;BME280;48717;55.556;37.816;2022-11-09T08:03:00;99553.72;;;6.97;100.00
62655;BME280;48717;55.556;37.816;2022-11-09T08:05:27;99515.97;;;6.77;100.00
62655;BME280;48717;55.556;37.816;2022-11-09T08:07:57;99550.22;;;6.98;100.00
62655;BME280;48717;55.556;37.816;2022-11-09T08:10:25;99546.69;;;6.92;100.00
62655;BME280;48717;55.556;37.816;2022-11-09T08:12:57;99544.09;;;6.97;100.00
62655;BME280;48717;55.556;37.816;2022-11-09T08:15:25;99492.25;;;6.65;100.00
62655;BME280;48717;55.556;37.816;2022-11-09T08:17:53;99536.09;;;6.85;100.00
62655;BME280;48717;55.556;37.816;2022-11-09T08:20:20;99517.69;;;6.77;100.00
62655;BME280;48717;55.556;37.816;2022-11-09T08:22:48;99537.94;;;6.94;100.00
62655;BME280;48717;55.556;37.816;2022-11-09T08:25:15;99533.56;;;6.94;100.00
62655;BME280;48717;55.556;37.816;2022-11-09T08:27:42;99521.19;;;6.81;100.00
62655;BME280;48717;55.556;37.816;2022-11-09T08:30:14;99534.31;;;6.82;100.00
62655;BME280;48717;55.556;37.816;2022-11-09T08:32:42;99554.56;;;6.97;100.00
62655;BME280;48717;55.556;37.816;2022-11-09T08:35:10;99540.59;;;6.97;100.00
62655;BME280;48717;55.556;37.816;2022-11-09T08:37:40;99551.97;;;6.99;100.00
62655;BME280;48717;55.556;37.816;2022-11-09T08:40:07;99498.38;;;6.67;100.00
62655;BME280;48717;55.556;37.816;2022-11-09T08:42:34;99544.03;;;6.94;100.00
62655;BME280;48717;55.556;37.816;2022-11-09T08:45:03;99533.56;;;6.91;100.00
62655;BME280;48717;55.556;37.816;2022-11-09T08:47:30;99547.53;;;6.93;100.00
62655;BME280;48717;55.556;37.816;2022-11-09T08:49:57;99544.03;;;6.94;100.00
62655;BME280;48717;55.556;37.816;2022-11-09T08:52:24;99522.97;;;6.82;100.00
62655;BME280;48717;55.556;37.816;2022-11-09T08:54:51;99501.97;;;6.78;100.00
62655;BME280;48717;55.556;37.816;2022-11-09T08:57:18;99514.34;;;6.94;100.00
62655;BME280;48717;55.556;37.816;2022-11-09T08:59:45;99540.66;;;7.04;100.00
62655;BME280;48717;55.556;37.816;2022-11-09T09:02:12;99528.38;;;7.00;100.00
62655;BME280;48717;55.556;37.816;2022-11-09T09:04:40;99507.31;;;6.88;100.00
62655;BME280;48717;55.556;37.816;2022-11-09T09:07:09;99528.47;;;7.10;100.00
62655;BME280;48717;55.556;37.816;2022-11-09T09:09:36;99499.47;;;6.89;100.00
62655;BME280;48717;55.556;37.816;2022-11-09T09:12:07;99528.47;;;7.11;100.00
62655;BME280;48717;55.556;37.816;2022-11-09T09:14:35;99502.09;;;6.91;100.00
62655;BME280;48717;55.556;37.816;2022-11-09T09:17:02;99526.72;;;7.12;100.00
62655;BME280;48717;55.556;37.816;2022-11-09T09:19:30;99504.72;;;6.91;100.00
62655;BME280;48717;55.556;37.816;2022-11-09T09:21:58;99540.69;;;7.11;100.00
62655;BME280;48717;55.556;37.816;2022-11-09T09:24:25;99531.09;;;7.10;100.00
62655;BME280;48717;55.556;37.816;2022-11-09T09:26:52;99514.38;;;7.00;100.00
62655;BME280;48717;55.556;37.816;2022-11-09T09:29:20;99536.34;;;7.11;100.00
62655;BME280;48717;55.556;37.816;2022-11-09T09:31:47;99534.56;;;7.07;100.00
62655;BME280;48717;55.556;37.816;2022-11-09T09:34:14;99535.41;;;7.08;100.00
62655;BME280;48717;55.556;37.816;2022-11-09T09:36:41;99523.97;;;6.96;100.00
62655;BME280;48717;55.556;37.816;2022-11-09T09:39:13;99535.47;;;7.11;100.00
62655;BME280;48717;55.556;37.816;2022-11-09T09:41:59;99497.63;;;6.82;100.00
62655;BME280;48717;55.556;37.816;2022-11-09T09:47:22;99532.84;;;7.12;100.00
62655;BME280;48717;55.556;37.816;2022-11-09T09:50:15;99487.16;;;6.84;100.00
62655;BME280;48717;55.556;37.816;2022-11-09T09:55:43;99549.47;;;7.16;100.00
62655;BME280;48717;55.556;37.816;2022-11-09T09:58:19;99527.63;;;7.14;100.00
62655;BME280;48717;55.556;37.816;2022-11-09T10:00:51;99536.41;;;7.19;100.00
62655;BME280;48717;55.556;37.816;2022-11-09T10:03:21;99506.53;;;6.97;100.00
62655;BME280;48717;55.556;37.816;2022-11-09T10:09:10;99535.53;;;7.20;100.00
62655;BME280;48717;55.556;37.816;2022-11-09T10:11:54;99538.16;;;7.20;100.00
62655;BME280;48717;55.556;37.816;2022-11-09T10:25:45;99546.03;;;7.17;100.00
62655;BME280;48717;55.556;37.816;2022-11-09T10:28:36;99523.19;;;7.07;100.00
62655;BME280;48717;55.556;37.816;2022-11-09T10:31:30;99544.31;;;7.24;100.00
62655;BME280;48717;55.556;37.816;2022-11-09T10:34:26;99509.19;;;7.04;100.00
62655;BME280;48717;55.556;37.816;2022-11-09T10:39:41;99524.16;;;7.18;100.00
62655;BME280;48717;55.556;37.816;2022-11-09T10:42:29;99531.19;;;7.25;100.00
62655;BME280;48717;55.556;37.816;2022-11-09T10:48:13;99521.53;;;7.18;100.00
62655;BME280;48717;55.556;37.816;2022-11-09T10:50:59;99506.66;;;7.14;100.00
62655;BME280;48717;55.556;37.816;2022-11-09T10:53:44;99526.84;;;7.27;100.00
62655;BME280;48717;55.556;37.816;2022-11-09T10:56:47;99519.84;;;7.23;100.00
62655;BME280;48717;55.556;37.816;2022-11-09T10:59:53;99528.63;;;7.30;100.00
62655;BME280;48717;55.556;37.816;2022-11-09T11:02:44;99530.34;;;7.26;100.00
62655;BME280;48717;55.556;37.816;2022-11-09T11:05:31;99528.56;;;7.25;100.00
62655;BME280;48717;55.556;37.816;2022-11-09T11:08:25;99525.09;;;7.26;100.00
62655;BME280;48717;55.556;37.816;2022-11-09T11:11:19;99508.41;;;7.16;100.00
62655;BME280;48717;55.556;37.816;2022-11-09T11:14:31;99533.88;;;7.31;100.00
62655;BME280;48717;55.556;37.816;2022-11-09T11:17:28;99525.09;;;7.29;100.00
62655;BME280;48717;55.556;37.816;2022-11-09T11:20:31;99529.50;;;7.34;100.00
62655;BME280;48717;55.556;37.816;2022-11-09T11:23:21;99539.16;;;7.35;100.00
62655;BME280;48717;55.556;37.816;2022-11-09T11:32:17;99528.66;;;7.35;100.00
62655;BME280;48717;55.556;37.816;2022-11-09T11:35:11;99491.84;;;7.25;100.00
62655;BME280;48717;55.556;37.816;2022-11-09T11:38:16;99524.34;;;7.44;100.00
62655;BME280;48717;55.556;37.816;2022-11-09T11:44:55;99541.00;;;7.48;100.00
62655;BME280;48717;55.556;37.816;2022-11-09T11:48:40;99527.81;;;7.36;100.00
62655;BME280;48717;55.556;37.816;2022-11-09T11:54:48;99528.72;;;7.47;100.00
62655;BME280;48717;55.556;37.816;2022-11-09T11:58:01;99538.34;;;7.45;100.00
62655;BME280;48717;55.556;37.816;2022-11-09T12:01:14;99537.47;;;7.46;100.00
62655;BME280;48717;55.556;37.816;2022-11-09T12:07:12;99528.72;;;7.42;100.00
62655;BME280;48717;55.556;37.816;2022-11-09T12:10:20;99543.63;;;7.47;100.00
62655;BME280;48717;55.556;37.816;2022-11-09T12:16:11;99506.75;;;7.25;100.00
62655;BME280;48717;55.556;37.816;2022-11-09T12:22:14;99530.44;;;7.42;100.00
62655;BME280;48717;55.556;37.816;2022-11-09T12:25:25;99544.50;;;7.50;100.00
62655;BME280;48717;55.556;37.816;2022-11-09T12:31:15;99535.75;;;7.51;100.00
62655;BME280;48717;55.556;37.816;2022-11-09T12:37:36;99537.53;;;7.52;100.00
62655;BME280;48717;55.556;37.816;2022-11-09T12:40:32;99533.97;;;7.47;100.00
62655;BME280;48717;55.556;37.816;2022-11-09T12:43:29;99542.75;;;7.49;100.00
62655;BME280;48717;55.556;37.816;2022-11-09T12:46:18;99540.13;;;7.48;100.00
62655;BME280;48717;55.556;37.816;2022-11-09T12:49:34;99533.09;;;7.43;100.00
62655;BME280;48717;55.556;37.816;2022-11-09T12:52:26;99541.00;;;7.48;100.00
62655;BME280;48717;55.556;37.816;2022-11-09T12:55:15;99498.84;;;7.23;100.00
62655;BME280;48717;55.556;37.816;2022-11-09T12:58:01;99546.25;;;7.48;100.00
62655;BME280;48717;55.556;37.816;2022-11-09T13:00:49;99514.63;;;7.29;100.00
62655;BME280;48717;55.556;37.816;2022-11-09T13:03:55;99509.34;;;7.23;100.00
62655;BME280;48717;55.556;37.816;2022-11-09T13:09:55;99538.38;;;7.48;100.00
62655;BME280;48717;55.556;37.816;2022-11-09T13:12:41;99551.50;;;7.51;100.00
62655;BME280;48717;55.556;37.816;2022-11-09T13:15:29;99551.50;;;7.51;100.00
62655;BME280;48717;55.556;37.816;2022-11-09T13:18:44;99525.19;;;7.36;100.00
62655;BME280;48717;55.556;37.816;2022-11-09T13:21:33;99548.03;;;7.55;100.00
62655;BME280;48717;55.556;37.816;2022-11-09T13:39:22;99554.16;;;7.56;100.00
62655;BME280;48717;55.556;37.816;2022-11-09T13:42:28;99565.56;;;7.56;100.00
62655;BME280;48717;55.556;37.816;2022-11-09T13:54:32;99566.41;;;7.57;100.00
62655;BME280;48717;55.556;37.816;2022-11-09T13:57:18;99567.28;;;7.56;100.00
62655;BME280;48717;55.556;37.816;2022-11-09T14:00:09;99536.53;;;7.36;100.00
62655;BME280;48717;55.556;37.816;2022-11-09T14:03:15;99539.19;;;7.41;100.00
62655;BME280;48717;55.556;37.816;2022-11-09T14:06:01;99547.06;;;7.39;100.00
62655;BME280;48717;55.556;37.816;2022-11-09T14:08:47;99558.47;;;7.48;100.00
62655;BME280;48717;55.556;37.816;2022-11-09T14:17:50;99581.31;;;7.61;100.00
62655;BME280;48717;55.556;37.816;2022-11-09T14:20:47;99535.69;;;7.39;100.00
62655;BME280;48717;55.556;37.816;2022-11-09T14:23:35;99546.22;;;7.45;100.00
62655;BME280;48717;55.556;37.816;2022-11-09T14:26:22;99535.69;;;7.42;100.00
62655;BME280;48717;55.556;37.816;2022-11-09T14:29:22;99568.25;;;7.66;100.00
62655;BME280;48717;55.556;37.816;2022-11-09T14:38:27;99579.63;;;7.68;100.00
62655;BME280;48717;55.556;37.816;2022-11-09T14:41:21;99571.75;;;7.69;100.00
62655;BME280;48717;55.556;37.816;2022-11-09T14:44:32;99577.03;;;7.73;100.00
62655;BME280;48717;55.556;37.816;2022-11-09T14:47:31;99555.09;;;7.67;100.00
62655;BME280;48717;55.556;37.816;2022-11-09T14:53:20;99572.66;;;7.73;100.00
62655;BME280;48717;55.556;37.816;2022-11-09T14:56:10;99580.53;;;7.73;100.00
62655;BME280;48717;55.556;37.816;2022-11-09T14:58:57;99572.63;;;7.71;100.00
62655;BME280;48717;55.556;37.816;2022-11-09T15:02:01;99574.41;;;7.71;100.00
62655;BME280;48717;55.556;37.816;2022-11-09T15:05:02;99584.00;;;7.70;100.00
62655;BME280;48717;55.556;37.816;2022-11-09T15:07:48;99570.00;;;7.67;100.00
62655;BME280;48717;55.556;37.816;2022-11-09T15:10:34;99535.75;;;7.48;100.00
62655;BME280;48717;55.556;37.816;2022-11-09T15:13:35;99548.06;;;7.57;100.00
62655;BME280;48717;55.556;37.816;2022-11-09T15:16:25;99571.78;;;7.76;100.00